createdAt,value
2023-12-27T00:03:07.731Z,4.10
2023-12-27T00:08:09.878Z,3.90
2023-12-27T00:13:11.552Z,4.10
2023-12-27T00:18:13.568Z,4.00
2023-12-27T00:23:15.367Z,3.83
2023-12-27T00:28:17.058Z,3.97
2023-12-27T00:33:19.690Z,3.77
2023-12-27T00:38:21.397Z,3.97
2023-12-27T00:43:23.053Z,4.57
2023-12-27T00:48:24.936Z,3.70
2023-12-27T00:53:26.680Z,4.17
2023-12-27T00:58:28.396Z,3.53
2023-12-27T01:03:30.194Z,4.00
2023-12-27T01:08:31.858Z,4.30
2023-12-27T01:13:33.670Z,4.00
2023-12-27T01:18:35.617Z,3.97
2023-12-27T01:23:37.469Z,4.63
2023-12-27T01:28:39.119Z,4.27
2023-12-27T01:33:42.412Z,4.43
2023-12-27T01:38:44.194Z,4.13
2023-12-27T01:43:45.941Z,3.90
2023-12-27T01:48:47.702Z,4.50
2023-12-27T01:53:50.523Z,4.30
2023-12-27T01:58:52.170Z,3.83
2023-12-27T02:03:53.992Z,4.33
2023-12-27T02:08:55.945Z,3.80
2023-12-27T02:13:57.706Z,3.77
2023-12-27T02:19:01.720Z,4.47
2023-12-27T02:24:04.943Z,3.63
2023-12-27T02:29:06.648Z,3.83
2023-12-27T02:34:08.519Z,3.07
2023-12-27T02:39:10.391Z,4.00
2023-12-27T02:44:12.090Z,4.00
2023-12-27T02:49:13.952Z,3.30
2023-12-27T02:54:16.142Z,3.37
2023-12-27T02:59:17.871Z,3.27
2023-12-27T03:04:19.670Z,3.43
2023-12-27T03:09:21.349Z,3.47
2023-12-27T03:14:23.024Z,3.90
2023-12-27T03:19:26.460Z,3.50
2023-12-27T03:24:28.390Z,3.50
2023-12-27T03:29:30.181Z,3.53
2023-12-27T03:34:32.155Z,2.90
2023-12-27T03:39:33.964Z,3.10
2023-12-27T03:44:35.733Z,3.10
2023-12-27T03:49:37.707Z,3.50
2023-12-27T03:54:39.851Z,3.10
2023-12-27T03:59:42.216Z,3.47
2023-12-27T04:04:44.135Z,3.00
2023-12-27T04:09:45.913Z,3.13
2023-12-27T04:14:47.750Z,3.27
2023-12-27T04:19:49.501Z,4.50
2023-12-27T04:24:51.202Z,5.07
2023-12-27T04:29:52.862Z,3.83
2023-12-27T04:34:54.579Z,3.80
2023-12-27T04:39:56.270Z,3.97
2023-12-27T04:44:58.010Z,3.60
2023-12-27T04:49:59.954Z,4.00
2023-12-27T04:55:01.879Z,3.60
2023-12-27T05:00:05.396Z,3.70
2023-12-27T05:05:08.843Z,3.03
2023-12-27T05:10:10.680Z,3.40
2023-12-27T05:15:12.453Z,3.23
2023-12-27T05:20:14.582Z,3.53
2023-12-27T05:25:16.344Z,3.37
2023-12-27T05:30:18.489Z,3.20
2023-12-27T05:35:20.312Z,3.37
2023-12-27T05:40:22.004Z,3.97
2023-12-27T05:45:23.996Z,3.83
2023-12-27T05:50:25.720Z,4.20
2023-12-27T05:55:27.375Z,4.13
2023-12-27T06:00:29.214Z,3.40
2023-12-27T06:05:31.088Z,3.30
2023-12-27T06:10:33.308Z,3.97
2023-12-27T06:15:35.023Z,3.77
2023-12-27T06:20:36.920Z,3.30
2023-12-27T06:25:38.653Z,4.30
2023-12-27T06:30:40.375Z,3.90
2023-12-27T06:35:42.961Z,3.47
2023-12-27T06:40:44.640Z,3.50
2023-12-27T06:45:46.461Z,4.03
2023-12-27T06:50:49.673Z,3.70
2023-12-27T06:55:51.391Z,4.03
2023-12-27T07:00:53.185Z,5.00
2023-12-27T07:05:55.089Z,4.80
2023-12-27T07:10:57.014Z,4.90
2023-12-27T07:15:59.128Z,5.60
2023-12-27T07:21:00.922Z,28.63
2023-12-27T07:26:02.762Z,10.27
2023-12-27T07:31:04.965Z,7.60
2023-12-27T07:36:08.272Z,7.30
2023-12-27T07:41:10.083Z,4.63
2023-12-27T07:46:11.967Z,4.40
2023-12-27T07:51:13.695Z,5.30
2023-12-27T07:56:16.931Z,5.47
2023-12-27T08:01:22.349Z,4.30
2023-12-27T08:06:27.639Z,4.17
2023-12-27T08:11:29.347Z,4.00
2023-12-27T08:16:31.041Z,4.17
2023-12-27T08:21:32.701Z,4.57
2023-12-27T08:26:34.377Z,4.50
2023-12-27T08:31:36.172Z,5.50
2023-12-27T08:36:38.084Z,6.83
2023-12-27T08:41:39.818Z,5.90
2023-12-27T08:46:41.523Z,5.00
2023-12-27T08:51:43.202Z,5.30
2023-12-27T08:56:44.962Z,5.97
2023-12-27T09:01:46.612Z,6.90
2023-12-27T09:06:48.409Z,6.70
2023-12-27T09:11:50.126Z,5.37
2023-12-27T09:16:51.816Z,7.27
2023-12-27T09:21:53.460Z,4.03
2023-12-27T09:26:55.109Z,3.60
2023-12-27T09:31:57.317Z,3.97
2023-12-27T09:36:59.134Z,5.43
2023-12-27T09:42:01.004Z,3.73
2023-12-27T09:47:03.930Z,4.70
2023-12-27T09:52:06.563Z,4.47
2023-12-27T09:57:08.709Z,3.93
2023-12-27T10:02:17.574Z,3.90
2023-12-27T10:07:22.447Z,6.60
2023-12-27T10:12:25.442Z,3.97
2023-12-27T10:17:28.650Z,4.10
2023-12-27T10:22:30.815Z,3.50
2023-12-27T10:27:32.628Z,3.47
2023-12-27T10:32:34.583Z,3.67
2023-12-27T10:37:38.968Z,4.40
2023-12-27T10:42:42.770Z,3.80
2023-12-27T10:47:47.607Z,5.30
2023-12-27T10:53:00.703Z,4.83
2023-12-27T10:58:04.424Z,4.77
2023-12-27T11:06:18.978Z,3.70
2023-12-27T11:11:22.955Z,4.10
2023-12-27T11:16:28.683Z,4.67
2023-12-27T11:21:30.917Z,4.67
2023-12-27T11:26:37.693Z,4.67
2023-12-27T11:31:40.448Z,4.53
2023-12-27T11:36:45.697Z,4.10
2023-12-27T11:41:48.924Z,4.70
2023-12-27T11:46:50.661Z,4.30
2023-12-27T11:51:52.934Z,4.97
2023-12-27T11:56:55.350Z,5.47
2023-12-27T12:01:59.744Z,4.80
2023-12-27T12:07:21.086Z,5.30
2023-12-27T12:12:24.327Z,4.33
2023-12-27T12:17:28.384Z,3.00
2023-12-27T12:22:31.368Z,3.00
2023-12-27T12:27:33.112Z,3.80
2023-12-27T12:32:40.946Z,4.03
2023-12-27T12:37:42.873Z,3.60
2023-12-27T12:42:45.710Z,5.00
2023-12-27T12:47:47.771Z,4.80
2023-12-27T12:52:50.521Z,6.57
2023-12-27T12:57:53.232Z,6.63
2023-12-27T13:02:55.251Z,4.40
2023-12-27T13:07:57.140Z,4.33
2023-12-27T13:12:59.054Z,4.20
2023-12-27T13:18:01.168Z,3.53
2023-12-27T13:23:03.622Z,4.17
2023-12-27T13:28:09.563Z,4.73
2023-12-27T13:33:13.916Z,3.70
2023-12-27T13:38:16.246Z,4.10
2023-12-27T13:43:18.127Z,3.10
2023-12-27T13:48:22.471Z,4.77
2023-12-27T13:53:24.590Z,4.37
2023-12-27T13:58:26.388Z,3.63
2023-12-27T14:03:31.785Z,4.37
2023-12-27T14:08:34.003Z,4.07
2023-12-27T14:13:35.744Z,3.47
2023-12-27T14:18:37.581Z,3.10
2023-12-27T14:23:39.389Z,3.57
2023-12-27T14:28:41.350Z,3.57
2023-12-27T14:33:45.039Z,3.03
2023-12-27T14:38:46.962Z,3.60
2023-12-27T14:43:48.868Z,16.93
2023-12-27T14:48:50.639Z,7.13
2023-12-27T14:53:52.398Z,9.43
2023-12-27T14:58:54.126Z,7.57
2023-12-27T15:03:55.949Z,5.60
2023-12-27T15:08:58.680Z,5.37
2023-12-27T15:14:00.528Z,5.50
2023-12-27T15:19:02.494Z,5.50
2023-12-27T15:24:04.573Z,5.13
2023-12-27T15:29:06.329Z,4.60
2023-12-27T15:34:09.373Z,18.33
2023-12-27T15:39:11.322Z,9.70
2023-12-27T15:44:13.643Z,7.87
2023-12-27T15:49:15.657Z,6.40
2023-12-27T15:54:17.781Z,4.70
2023-12-27T15:59:20.704Z,6.10
2023-12-27T16:04:22.730Z,7.80
2023-12-27T16:09:24.666Z,7.13
2023-12-27T16:14:26.372Z,5.07
2023-12-27T16:19:28.366Z,30.33
2023-12-27T16:24:30.176Z,23.00
2023-12-27T16:29:32.669Z,15.43
2023-12-27T16:34:34.490Z,18.27
2023-12-27T16:39:36.358Z,24.63
2023-12-27T16:44:38.238Z,12.87
2023-12-27T16:49:40.026Z,5.40
2023-12-27T16:54:41.954Z,7.90
2023-12-27T16:59:43.780Z,6.23
2023-12-27T17:04:45.546Z,6.20
2023-12-27T17:09:49.379Z,6.63
2023-12-27T17:14:52.874Z,9.83
2023-12-27T17:19:54.562Z,13.50
2023-12-27T17:24:56.401Z,10.23
2023-12-27T17:29:58.103Z,8.87
2023-12-27T17:34:59.767Z,7.40
2023-12-27T17:40:01.958Z,8.53
2023-12-27T17:45:05.196Z,9.97
2023-12-27T17:50:08.147Z,12.37
2023-12-27T17:55:09.865Z,21.30
2023-12-27T18:00:13.559Z,17.53
2023-12-27T18:05:15.378Z,9.07
2023-12-27T18:10:17.196Z,8.27
2023-12-27T18:15:18.947Z,9.40
2023-12-27T18:20:20.980Z,14.87
2023-12-27T18:25:22.732Z,18.97
2023-12-27T18:30:24.921Z,12.43
2023-12-27T18:35:26.859Z,10.53
2023-12-27T18:40:28.798Z,10.90
2023-12-27T18:45:30.495Z,8.90
2023-12-27T18:50:32.335Z,10.97
2023-12-27T18:55:34.386Z,8.47
2023-12-27T19:00:36.081Z,8.43
2023-12-27T19:05:37.844Z,10.47
2023-12-27T19:10:39.531Z,8.37
2023-12-27T19:15:41.326Z,7.10
2023-12-27T19:20:43.140Z,7.73
2023-12-27T19:25:44.839Z,10.80
2023-12-27T19:30:47.996Z,8.60
2023-12-27T19:35:49.779Z,8.53
2023-12-27T19:40:51.533Z,8.40
2023-12-27T19:45:53.363Z,6.80
2023-12-27T19:50:56.093Z,6.77
2023-12-27T19:55:57.817Z,6.57
2023-12-27T20:01:00.650Z,6.83
2023-12-27T20:06:05.587Z,6.20
2023-12-27T20:11:07.569Z,6.60
2023-12-27T20:16:09.523Z,12.40
2023-12-27T20:21:11.259Z,10.43
2023-12-27T20:26:13.166Z,8.47
2023-12-27T20:31:15.025Z,10.03
2023-12-27T20:36:16.889Z,11.20
2023-12-27T20:41:20.692Z,10.90
2023-12-27T20:46:22.395Z,10.23
2023-12-27T20:51:24.130Z,9.43
2023-12-27T20:56:25.882Z,9.57
2023-12-27T21:01:27.679Z,8.83
2023-12-27T21:06:29.501Z,8.60
2023-12-27T21:11:38.033Z,11.23
2023-12-27T21:16:41.070Z,9.30
2023-12-27T21:21:46.034Z,11.43
2023-12-27T21:26:47.970Z,11.60
2023-12-27T21:31:49.751Z,8.37
2023-12-27T21:36:52.176Z,9.10
2023-12-27T21:41:55.317Z,8.40
2023-12-27T21:46:57.034Z,8.30
2023-12-27T21:51:58.901Z,7.53
2023-12-27T21:57:00.650Z,7.40
2023-12-27T22:02:02.716Z,7.83
2023-12-27T22:07:06.695Z,7.90
2023-12-27T22:12:10.198Z,6.80
2023-12-27T22:17:12.079Z,7.93
2023-12-27T22:22:14.420Z,6.47
2023-12-27T22:27:16.181Z,7.47
2023-12-27T22:32:17.858Z,8.37
2023-12-27T22:37:19.591Z,8.90
2023-12-27T22:42:21.356Z,7.70
2023-12-27T22:47:25.993Z,7.30
2023-12-27T22:52:27.888Z,7.73
2023-12-27T22:57:29.599Z,7.33
2023-12-27T23:02:31.992Z,7.50
2023-12-27T23:07:33.828Z,7.10
2023-12-27T23:12:35.661Z,7.27
2023-12-27T23:17:40.234Z,6.87
2023-12-27T23:22:42.074Z,6.53
2023-12-27T23:27:43.840Z,7.97
2023-12-27T23:32:51.015Z,6.23
2023-12-27T23:37:53.692Z,6.70
2023-12-27T23:42:55.399Z,6.93
2023-12-27T23:47:57.412Z,6.40
2023-12-27T23:52:59.329Z,5.67
2023-12-27T23:58:01.264Z,7.17
